METAR Data
IDs: Format: Raw Decoded Include TAF

Data at: 0637 UTC 23 Feb 2019

PAKV 230553Z AUTO 00000KT 10SM SCT070 M12/M13 A3025 RMK UPE52 SLP248 P0000 60000 T11171128 11061 21122 53003 TSNO VIA AUTODIAL
PAKV 230453Z AUTO 00000KT 8SM UP SCT055 BKN070 OVC085 M09/M11 A3024 RMK UPB48SNE48 SLP245 P0000 T10941106 TSNO VIA AUTODIAL
PAKV 230413Z AUTO 00000KT 3SM -SN BR SCT030 OVC041 M07/M09 A3023 RMK P0000 T10721089 TSNO VIA AUTODIAL
PAKV 230358Z AUTO 00000KT 2SM -SN BR SCT023 OVC030 M07/M08 A3024 RMK P0000 T10671078 TSNO VIA AUTODIAL
PAKV 230353Z AUTO 00000KT 1 3/4SM -SN BR BKN023 OVC028 M07/M08 A3024 RMK SLP244 P0000 T10721078 TSNO VIA AUTODIAL
PAKV 230325Z AUTO 00000KT 1 1/4SM -SN BR OVC028 M07/M08 A3024 RMK P0000 T10721083 TSNO VIA AUTODIAL
PAKV 230305Z AUTO 00000KT 1 3/4SM -SN BR OVC030 M07/M08 A3023 RMK P0000 T10721078 TSNO VIA AUTODIAL
PAKV 230253Z AUTO 05003KT 1 1/2SM -SN BR OVC029 M07/M08 A3024 RMK SLP243 P0000 60000 T10671083 56007 TSNO VIA AUTODIAL
PAKV 230230Z AUTO 00000KT 1 1/4SM -SN BR OVC028 M07/M08 A3023 RMK P0000 T10671083 TSNO VIA AUTODIAL
PAKV 230153Z AUTO 00000KT 1 3/4SM -SN BR OVC037 M06/M08 A3024 RMK SLP244 P0000 T10611078 TSNO VIA AUTODIAL
PAKV 230151Z AUTO 00000KT 1 3/4SM -SN BR OVC037 M06/M08 A3024 RMK P0000 TSNO VIA AUTODIAL
PAKV 230142Z AUTO 00000KT 2SM -SN BR OVC037 M06/M07 A3024 RMK P0000 T10611072 TSNO VIA AUTODIAL
PAKV 230053Z AUTO 03003KT 1 3/4SM -SN BR FEW027 OVC040 M07/M08 A3025 RMK SLP247 P0000 T10671078 TSNO VIA AUTODIAL
PAKV 230038Z AUTO 04004KT 1 3/4SM -SN BR OVC040 M07/M08 A3024 RMK P0000 T10671083 TSNO VIA AUTODIAL
PAKV 230028Z AUTO 03004KT 2SM -SN BR OVC040 M07/M08 A3025 RMK P0000 T10671083 TSNO VIA AUTODIAL
PAKV 230017Z AUTO 03005KT 1 3/4SM -SN BR BKN040 OVC050 M07/M08 A3025 RMK P0000 T10671083 TSNO VIA AUTODIAL
PAKV 230004Z AUTO 04004KT 2SM -SN BR BKN040 OVC050 M07/M09 A3026 RMK P0000 T10721089 TSNO VIA AUTODIAL
PAKV 222353Z AUTO 04003KT 1 3/4SM -SN BR BKN040 OVC050 M07/M09 A3026 RMK UPE2256SNB2256 SLP251 P0000 60000 T10721089 11067 21089 58006 TSNO VIA AUTODIAL
PAKV 222351Z AUTO 04003KT 1 3/4SM -SN BR BKN038 OVC050 M07/M09 A3026 RMK UPE2256SNB2256 P0000 TSNO VIA AUTODIAL
PAKV 222313Z AUTO 00000KT 2SM -SN BR OVC050 M07/M09 A3026 RMK UPE2256SNB2256 P0000 T10721089 TSNO VIA AUTODIAL
PAKV 222253Z AUTO 00000KT 4SM UP BR BKN045 OVC055 M07/M09 A3027 RMK UPE31B49SNB31E49 SLP255 P0000 T10721089 TSNO VIA AUTODIAL
PAKV 222153Z AUTO 00000KT 7SM UP OVC044 M08/M09 A3027 RMK UPB45SNE45 SLP255 P0000 T10781089 TSNO VIA AUTODIAL
PAKV 222142Z AUTO 00000KT 3SM -SN BR BKN040 OVC049 M08/M09 A3027 RMK P0000 T10781089 TSNO VIA AUTODIAL
PAKV 222123Z AUTO 00000KT 1 1/2SM -SN BR FEW018 BKN043 OVC055 M08/M09 A3027 RMK P0000 T10781094 TSNO VIA AUTODIAL
PAKV 222057Z AUTO 00000KT 2SM -SN BR FEW018 BKN030 OVC055 M08/M09 A3027 RMK P0000 T10831094 TSNO VIA AUTODIAL
PAKV 222053Z AUTO 00000KT 1 1/4SM -SN BR FEW018 BKN028 OVC050 M08/M09 A3027 RMK UPE26SNB26 SLP256 P0000 60000 T10831094 53006 TSNO VIA AUTODIAL
PAKV 222051Z AUTO 00000KT 1SM -SN BR FEW018 BKN028 OVC050 M08/M09 A3027 RMK UPE26SNB26 P0000 TSNO VIA AUTODIAL
PAKV 222046Z AUTO 00000KT 3/4SM -SN BR FEW016 OVC024 M08/M09 A3027 RMK UPE26SNB26 P0000 T10831094 TSNO VIA AUTODIAL
PAKV 222032Z AUTO 00000KT 1 3/4SM -SN BR SCT014 BKN024 OVC049 M08/M09 A3027 RMK UPE26SNB26 P0000 T10831094 TSNO VIA AUTODIAL
PAKV 222004Z AUTO 00000KT 3SM UP BR FEW006 OVC013 M08/M10 A3027 RMK P0000 T10831100 TSNO VIA AUTODIAL
PAKV 221953Z AUTO 00000KT 1 1/4SM UP BR SCT006 OVC012 M08/M09 A3027 RMK SLP255 P0000 T10831094 TSNO VIA AUTODIAL
PAKV 221951Z AUTO 00000KT 2SM UP BR FEW006 OVC012 M08/M09 A3027 RMK P0000 TSNO VIA AUTODIAL
PAKV 221942Z AUTO 00000KT 5SM UP BR SCT008 OVC012 M09/M09 A3027 RMK P0000 T10891094 TSNO VIA AUTODIAL
PAKV 221920Z AUTO 00000KT 5SM UP BR BKN005 OVC013 M09/M09 A3026 RMK P0000 T10891094 TSNO VIA AUTODIAL
PAKV 221911Z AUTO 00000KT 2SM UP BR BKN005 OVC011 M09/M09 A3026 RMK P0000 T10891094 TSNO VIA AUTODIAL
PAKV 221903Z AUTO 04004KT 1 1/4SM UP BR OVC004 M09/M10 A3025 RMK P0000 T10891100 TSNO VIA AUTODIAL
PAKV 221853Z AUTO 01003KT 2SM UP BR OVC004 M09/M10 A3026 RMK UPE03B41SNB03E41 SLP250 P0000 T10891100 TSNO VIA AUTODIAL
PAKV 221836Z AUTO 00000KT 1SM -SN BR VV004 M09/M10 A3026 RMK UPE03SNB03 P0000 T10891100 TSNO VIA AUTODIAL
PAKV 221810Z AUTO 00000KT 3/4SM -SN BR VV005 M09/M10 A3026 RMK UPE03SNB03 P0000 T10891100 TSNO VIA AUTODIAL
PAKV 221753Z AUTO 00000KT 1 1/4SM UP BR OVC005 M09/M10 A3026 RMK SLP251 P0000 60000 I1000 I6000 T10891100 11089 21094 55002 TSNO VIA AUTODIAL
PAKV 221751Z AUTO 00000KT 1SM UP BR VV005 M09/M10 A3026 RMK P0000 I1000 TSNO VIA AUTODIAL
PAKV 221735Z AUTO 00000KT 3/4SM UP BR VV005 M09/M10 A3026 RMK P0000 T10891100 TSNO VIA AUTODIAL
PAKV 221716Z AUTO 00000KT 1 1/4SM UP BR OVC005 M09/M10 A3026 RMK P0000 T10941100 TSNO VIA AUTODIAL
PAKV 221653Z AUTO 00000KT 1SM UP BR OVC004 M09/M10 A3025 RMK SLP248 P0000 I1000 T10941100 TSNO VIA AUTODIAL
PAKV 221553Z AUTO 00000KT 1SM UP BR OVC004 M09/M10 A3026 RMK SLP252 P0000 I1000 T10941100 TSNO VIA AUTODIAL
PAKV 221512Z AUTO 00000KT 1SM UP BR OVC004 M09/M10 A3027 RMK P0000 T10941100 TSNO VIA AUTODIAL
PAKV 221453Z AUTO 00000KT 1 1/4SM UP BR OVC005 M09/M10 A3026 RMK UPB1358 SLP254 P0000 60000 I1000 I3000 T10941100 51002 TSNO VIA AUTODIAL
PAKV 221440Z AUTO 00000KT 1 1/4SM UP BR OVC005 M09/M10 A3026 RMK UPB1358 P0000 I1000 T10941100 TSNO VIA AUTODIAL
PAKV 221433Z AUTO 00000KT 2SM UP BR OVC005 M09/M10 A3026 RMK UPB1358 P0000 I1000 T10941100 TSNO VIA AUTODIAL
PAKV 221353Z AUTO 00000KT 1 3/4SM BR OVC007 M09/M10 A3026 RMK UPB1256E06 SLP253 P0000 I1000 T10941100 TSNO VIA AUTODIAL
PAKV 221348Z AUTO 00000KT 1 3/4SM BR OVC007 M09/M10 A3026 RMK UPB1256E06 P0000 I1000 TSNO VIA AUTODIAL
PAKV 221330Z AUTO 00000KT 2 1/2SM BR OVC007 M09/M10 A3026 RMK UPB1256E06 P0000 I1000 T10941100 TSNO VIA AUTODIAL
PAKV 221253Z AUTO 00000KT 5SM BR OVC006 M09/M11 A3026 RMK UPE02B21E36 SLP251 P0000 T10941106 TSNO VIA AUTODIAL
PAKV 221153Z AUTO 00000KT 5SM UP BR OVC008 M09/M11 A3025 RMK UPE1055B29 SLP247 P0000 60000 T10941106 11094 21100 51010 TSNO VIA AUTODIAL
PAKV 221053Z AUTO 00000KT 10SM UP OVC009 M09/M11 A3025 RMK UPE17B46 SLP246 P0000 T10941106 TSNO VIA AUTODIAL
PAKV 221051Z AUTO 00000KT 10SM UP OVC009 M09/M11 A3025 RMK UPE17B46 P0000 TSNO VIA AUTODIAL
PAKV 220953Z AUTO 00000KT 10SM UP OVC012 M09/M11 A3023 RMK UPE13B36SNB13E36 SLP242 P0000 T10941106 TSNO VIA AUTODIAL
PAKV 220853Z AUTO 00000KT 10SM UP OVC013 M09/M11 A3022 RMK UPE0756B14SNB37E47 SLP237 P0000 60000 T10941111 410831111 53013 TSNO VIA AUTODIAL
PAKV 220753Z AUTO 00000KT 9SM UP OVC014 M10/M11 A3020 RMK UPB12E29B50SNE12B29E50 SLP232 P0000 T11001111 TSNO VIA AUTODIAL
PAKV 220726Z AUTO 00000KT 10SM UP OVC014 M09/M11 A3020 RMK UPB12SNE12 P0000 T10941111 TSNO VIA AUTODIAL
PAKV 220653Z AUTO 00000KT 8SM -SN OVC015 M09/M11 A3019 RMK UPE05B14E49SNB05E14B49 SLP228 P0000 T10941111 TSNO VIA AUTODIAL
PAKV 220631Z AUTO 00000KT 10SM UP OVC015 M09/M11 A3018 RMK UPE05B14SNB05E14 P0000 T10941111 TSNO VIA AUTODIAL
PAKV 220605Z AUTO 00000KT 9SM -SN OVC014 M10/M11 A3018 RMK UPE05SNB05 P0000 T11001111 TSNO VIA AUTODIAL
PAKV 220553Z AUTO 00000KT 7SM UP OVC015 M10/M11 A3018 RMK UPB30SNE30 SLP223 P0000 60000 T11001111 11089 21111 53015 TSNO VIA AUTODIAL
PAKV 220510Z AUTO 00000KT 7SM -SN BKN016 BKN039 OVC050 M10/M12 A3016 RMK P0000 T11001117 TSNO VIA AUTODIAL
PAKV 220453Z AUTO 00000KT 4SM -SN BR FEW018 SCT038 OVC050 M10/M11 A3016 RMK SLP218 P0000 T11001111 TSNO VIA AUTODIAL
PAKV 220439Z AUTO 00000KT 4SM -SN BR SCT017 BKN038 OVC050 M10/M12 A3016 RMK P0000 T11001117 TSNO VIA AUTODIAL
PAKV 220414Z AUTO 00000KT 5SM -SN BR OVC018 M10/M12 A3015 RMK P0000 T11001117 TSNO VIA AUTODIAL
PAKV 220406Z AUTO 00000KT 2 1/2SM -SN BR OVC018 M09/M11 A3015 RMK P0000 T10941111 TSNO VIA AUTODIAL
PAKV 220353Z AUTO 00000KT 5SM -SN BR BKN018 OVC048 M09/M11 A3015 RMK UPB0254E24SNE0254B02E12B24 SLP213 P0000 T10941111 TSNO VIA AUTODIAL
PAKV 220253Z AUTO 00000KT 6SM -SN BR SCT022 BKN085 OVC120 M11/M12 A3013 RMK UPE35SNB12E24B35 SLP209 P0000 60000 T11111117 53011 TSNO VIA AUTODIAL
PAKV 220249Z AUTO 00000KT 3SM -SN BR SCT023 BKN055 OVC120 M11/M12 A3013 RMK UPE35SNB12E24B35 P0000 TSNO VIA AUTODIAL
PAKV 220241Z AUTO 00000KT 2 1/2SM -SN BR BKN028 BKN060 OVC120 M10/M12 A3013 RMK UPE35SNB12E24B35 P0000 T11001117 TSNO VIA AUTODIAL
PAKV 220153Z AUTO 00000KT 5SM UP BR BKN047 OVC065 M09/M12 A3011 RMK UPB51SNE51 SLP202 P0000 T10941117 TSNO VIA AUTODIAL
PAKV 220148Z AUTO 04003KT 4SM -SN BR BKN047 OVC060 M09/M12 A3011 RMK P0000 TSNO VIA AUTODIAL
PAKV 220140Z AUTO 00000KT 2 1/2SM -SN BR BKN041 BKN049 OVC060 M09/M11 A3011 RMK P0000 T10941111 TSNO VIA AUTODIAL
PAKV 220124Z AUTO 00000KT 6SM -SN BR BKN041 OVC055 M09/M11 A3011 RMK P0000 T10891111 TSNO VIA AUTODIAL
PAKV 220053Z AUTO 00000KT 2 1/2SM -SN BR BKN043 OVC055 M09/M11 A3010 RMK UPE01SNB01 SLP198 P0000 T10891111 TSNO VIA AUTODIAL
PAKV 220040Z AUTO 03003KT 3SM -SN BKN039 OVC049 M09/M12 A3010 RMK UPE01SNB01 P0000 T10891117 TSNO VIA AUTODIAL
PAKV 220021Z AUTO 00000KT 3SM -SN BR BKN027 BKN038 OVC048 M09/M11 A3009 RMK UPE01SNB01 P0000 T10891111 TSNO VIA AUTODIAL
PAKV 220014Z AUTO 00000KT 1 1/4SM -SN BR BKN023 BKN040 OVC048 M09/M11 A3009 RMK UPE01SNB01 P0000 T10891111 TSNO VIA AUTODIAL
PAKV 220006Z AUTO 02003KT 2 1/2SM -SN BKN023 BKN038 OVC046 M09/M12 A3009 RMK UPE01SNB01 P0000 T10891117 TSNO VIA AUTODIAL
PAKV 212353Z AUTO 03003KT 6SM UP FEW019 BKN038 OVC100 M09/M12 A3008 RMK UPB2258SNB22E33 SLP191 P0000 60000 T10941122 11083 21106 51005 TSNO VIA AUTODIAL
PAKV 212351Z AUTO 03004KT 6SM UP SCT019 BKN034 OVC100 M09/M12 A3008 RMK UPB2258SNB22E33 P0000 TSNO VIA AUTODIAL
PAKV 212253Z AUTO 03004KT 10SM OVC020 M10/M12 A3007 RMK UPB10E28SNE2156 SLP188 P0000 T11001122 TSNO VIA AUTODIAL
PAKV 212153Z AUTO 03003KT -SN OVC021 M10/M12 A3007 RMK UPB2059E20SNB22 SLP186 P0000 T11001117 TSNO $ VIA AUTODIAL
PAKV 212053Z AUTO 04003KT 5SM BR OVC020 M09/M11 A3005 RMK SLP180 60000 T10891111 51021 TSNO VIA AUTODIAL
PAKV 212044Z AUTO 03003KT 7SM OVC020 M09/M12 A3005 RMK T10891117 TSNO VIA AUTODIAL
PAKV 212013Z AUTO 00000KT M09/M12 A3004 RMK T10891117 PWINO FZRANO TSNO VIA AUTODIAL
PAKV 211953Z AUTO 00000KT 9SM OVC021 M09/M11 A3003 RMK SLP173 T10891111 TSNO VIA AUTODIAL
PAKV 211853Z AUTO 06003KT 5SM BR OVC025 M09/M11 A3001 RMK SLP168 P0000 T10891111 PWINO FZRANO TSNO $ VIA AUTODIAL